Eleva, Wisconsin
Current Conditions -  °F | °C
As of 6:56 PM on Wednesday 26 Nov 2014 (Local Time) from KEAU Reporting Station
Broken Clouds Broken Clouds  
Wind Chill: 15°   Ceiling: 4700
Heat Index: 23°   Visibility: 10mi
Dew Point: 16°   Wind: 7mph
Humidity: 74%   Direction: 330°NNW
Pressure: 30.23"   Gusts: NA
Location:  44.58°N, 91.47°W
Report Text: KEAU 270056Z 33006KT 10SM BKN047 M05/M09 A3023 RMK AO2 SLP253 T10501089
Loading
Personal Weather Stations






























Interactive Weather Map New forecast layout! Learn more

10-Day Weather Forecast

Advertisements
Track Severe Weather on mobile